Terminal Aerodrome Forecast
Issued by NWS

Home | Current Version | Previous Version | Text Only | Print | Product List | Glossary On
Versions: 1 2 3 4 5 6 7 8 9 10 11 12 13 14 15 16 17 18 19 20 21 22 23 24
000
FTUS41 KPBZ 240244 AAB
TAFLBE
TAF AMD
KLBE 240244Z 2403/2424 23004KT P6SM -RA SCT006 OVC050
      TEMPO 2403/2406 5SM -SHRA BKN006
     FM240600 24005KT 6SM -SHRA BR BKN007
     FM240800 26005KT 4SM BR OVC015
     FM241200 25012KT P6SM SCT025
     FM241600 26014G20KT P6SM BKN050=

USA.gov is the U.S. government's official web portal to all federal, state and local government web resources and services.